AAY1586 KPVU-KHOU
Flight info
| Callsign | AAY1586 |
|---|---|
| Flight time | 2h 29m |
| Altitude | 35000 |
| Route | DITTI1 DAHLI JNC ALS PNH MQP NNEAL KIDDZ5 |
| Aircraft | A320/M-SDE3FGHIRWY/LB1 |
Departure
| Time | 2026-04-24 11:51 |
|---|---|
| Airport | Provo Municipal Airport (KPVU) |
Arrival
| Time | 2026-04-24 14:21 |
|---|---|
| Airport | William P. Hobby Airport (KHOU) |
| Time | Latitude | Longitude | Altitude | Speed | Heading |
|---|---|---|---|---|---|
| 2026-04-24 11:43 | 40.21369 | -111.71332 | 4502 ft | 0 kts | 56° |
| 2026-04-24 11:46 | 40.21368 | -111.71335 | 4498 ft | 2 kts | 56° |
| 2026-04-24 11:46 | 40.21359 | -111.71353 | 4499 ft | 2 kts | 56° |
| 2026-04-24 11:46 | 40.21349 | -111.71370 | 4500 ft | 2 kts | 75° |
| 2026-04-24 11:47 | 40.21352 | -111.71390 | 4502 ft | 2 kts | 138° |
| 2026-04-24 11:47 | 40.21358 | -111.71398 | 4501 ft | 0 kts | 147° |
| 2026-04-24 11:48 | 40.21358 | -111.71397 | 4501 ft | 1 kts | 147° |
| 2026-04-24 11:49 | 40.21318 | -111.71363 | 4500 ft | 13 kts | 146° |
| 2026-04-24 11:49 | 40.21253 | -111.71362 | 4500 ft | 10 kts | 238° |
| 2026-04-24 11:49 | 40.21217 | -111.71415 | 4500 ft | 7 kts | 194° |
| 2026-04-24 11:49 | 40.21163 | -111.71384 | 4497 ft | 8 kts | 163° |
| 2026-04-24 11:50 | 40.21126 | -111.71423 | 4497 ft | 7 kts | 238° |
| 2026-04-24 11:50 | 40.21098 | -111.71478 | 4500 ft | 8 kts | 237° |
| 2026-04-24 11:50 | 40.21085 | -111.71527 | 4497 ft | 3 kts | 284° |
| 2026-04-24 11:50 | 40.21109 | -111.71549 | 4500 ft | 10 kts | 328° |
| 2026-04-24 11:51 | 40.21356 | -111.71767 | 4500 ft | 83 kts | 326° |
| 2026-04-24 11:51 | 40.22042 | -111.72379 | 4502 ft | 153 kts | 325° |
| 2026-04-24 11:51 | 40.23057 | -111.73278 | 4798 ft | 185 kts | 326° |
| 2026-04-24 11:51 | 40.23845 | -111.74579 | 5776 ft | 186 kts | 283° |
| 2026-04-24 11:52 | 40.23796 | -111.76249 | 6517 ft | 189 kts | 247° |
| 2026-04-24 11:52 | 40.23011 | -111.77737 | 6650 ft | 210 kts | 228° |
| 2026-04-24 11:52 | 40.21985 | -111.79223 | 6772 ft | 232 kts | 226° |
| 2026-04-24 11:52 | 40.20830 | -111.80847 | 7072 ft | 256 kts | 227° |
| 2026-04-24 11:53 | 40.19574 | -111.82618 | 7549 ft | 270 kts | 227° |
| 2026-04-24 11:53 | 40.18290 | -111.84444 | 8285 ft | 274 kts | 228° |
| 2026-04-24 11:53 | 40.16995 | -111.86304 | 8851 ft | 278 kts | 229° |
| 2026-04-24 11:53 | 40.15697 | -111.88192 | 9441 ft | 279 kts | 230° |
| 2026-04-24 11:54 | 40.14417 | -111.90063 | 10228 ft | 282 kts | 229° |
| 2026-04-24 11:54 | 40.12790 | -111.91668 | 10442 ft | 309 kts | 207° |
| 2026-04-24 11:54 | 40.10673 | -111.92653 | 10597 ft | 335 kts | 198° |
| 2026-04-24 11:54 | 40.08315 | -111.93329 | 10792 ft | 355 kts | 193° |
| 2026-04-24 11:55 | 40.05839 | -111.93863 | 11285 ft | 363 kts | 192° |
| 2026-04-24 11:55 | 40.03344 | -111.94297 | 11906 ft | 369 kts | 186° |
| 2026-04-24 11:55 | 40.00754 | -111.94175 | 12543 ft | 377 kts | 176° |
| 2026-04-24 11:55 | 39.98161 | -111.93456 | 13165 ft | 385 kts | 166° |
| 2026-04-24 11:56 | 39.95580 | -111.92432 | 13773 ft | 389 kts | 167° |
| 2026-04-24 11:56 | 39.92969 | -111.91419 | 14313 ft | 393 kts | 167° |
| 2026-04-24 11:56 | 39.90313 | -111.90504 | 14842 ft | 394 kts | 174° |
| 2026-04-24 11:56 | 39.87622 | -111.90154 | 15356 ft | 392 kts | 184° |
| 2026-04-24 11:57 | 39.84902 | -111.90411 | 15861 ft | 391 kts | 192° |
| 2026-04-24 11:57 | 39.82193 | -111.90887 | 16385 ft | 394 kts | 192° |
| 2026-04-24 11:57 | 39.79455 | -111.91360 | 16895 ft | 397 kts | 191° |
| 2026-04-24 11:57 | 39.76660 | -111.91406 | 17371 ft | 408 kts | 175° |
| 2026-04-24 11:58 | 39.73913 | -111.90353 | 17849 ft | 419 kts | 157° |
| 2026-04-24 11:58 | 39.71493 | -111.88179 | 18314 ft | 429 kts | 137° |
| 2026-04-24 11:58 | 39.69703 | -111.85098 | 18726 ft | 437 kts | 118° |
| 2026-04-24 11:58 | 39.68677 | -111.81365 | 19152 ft | 440 kts | 104° |
| 2026-04-24 11:59 | 39.67921 | -111.77493 | 19606 ft | 443 kts | 104° |
| 2026-04-24 11:59 | 39.67173 | -111.73596 | 20072 ft | 445 kts | 104° |
| 2026-04-24 11:59 | 39.66425 | -111.69686 | 20517 ft | 446 kts | 104° |
| 2026-04-24 11:59 | 39.65929 | -111.67093 | 20802 ft | 448 kts | 104° |
| 2026-04-24 12:00 | 39.64923 | -111.61878 | 21354 ft | 451 kts | 104° |
| 2026-04-24 12:00 | 39.64148 | -111.57925 | 21773 ft | 453 kts | 104° |
| 2026-04-24 12:00 | 39.63363 | -111.53942 | 22186 ft | 456 kts | 104° |
| 2026-04-24 12:00 | 39.62575 | -111.49952 | 22588 ft | 458 kts | 104° |
| 2026-04-24 12:01 | 39.62049 | -111.47284 | 22843 ft | 459 kts | 104° |
| 2026-04-24 12:01 | 39.61257 | -111.43252 | 23224 ft | 461 kts | 104° |
| 2026-04-24 12:01 | 39.60462 | -111.39205 | 23595 ft | 464 kts | 104° |
| 2026-04-24 12:01 | 39.59663 | -111.35145 | 23915 ft | 466 kts | 104° |
| 2026-04-24 12:02 | 39.58859 | -111.31051 | 24226 ft | 469 kts | 104° |
| 2026-04-24 12:02 | 39.58059 | -111.26993 | 24508 ft | 471 kts | 104° |
| 2026-04-24 12:02 | 39.57240 | -111.22860 | 24790 ft | 474 kts | 104° |
| 2026-04-24 12:02 | 39.56411 | -111.18703 | 25087 ft | 476 kts | 104° |
| 2026-04-24 12:03 | 39.55577 | -111.14533 | 25371 ft | 479 kts | 105° |
| 2026-04-24 12:03 | 39.54739 | -111.10341 | 25672 ft | 481 kts | 105° |
| 2026-04-24 12:03 | 39.53908 | -111.06188 | 25964 ft | 482 kts | 105° |
| 2026-04-24 12:03 | 39.53059 | -111.01959 | 26227 ft | 485 kts | 105° |
| 2026-04-24 12:04 | 39.52208 | -110.97710 | 26486 ft | 487 kts | 105° |
| 2026-04-24 12:04 | 39.51352 | -110.93448 | 26741 ft | 489 kts | 105° |
| 2026-04-24 12:04 | 39.50501 | -110.89215 | 26968 ft | 492 kts | 105° |
| 2026-04-24 12:04 | 39.49632 | -110.84907 | 27208 ft | 494 kts | 105° |
| 2026-04-24 12:05 | 39.48759 | -110.80596 | 27472 ft | 496 kts | 105° |
| 2026-04-24 12:05 | 39.47878 | -110.76267 | 27751 ft | 497 kts | 105° |
| 2026-04-24 12:05 | 39.46996 | -110.71941 | 28132 ft | 496 kts | 105° |
| 2026-04-24 12:05 | 39.46112 | -110.67617 | 28478 ft | 496 kts | 105° |
| 2026-04-24 12:06 | 39.45229 | -110.63293 | 28647 ft | 500 kts | 105° |
| 2026-04-24 12:06 | 39.44336 | -110.58920 | 28871 ft | 502 kts | 105° |
| 2026-04-24 12:06 | 39.43453 | -110.54609 | 29175 ft | 503 kts | 105° |
| 2026-04-24 12:06 | 39.42552 | -110.50223 | 29494 ft | 503 kts | 105° |
| 2026-04-24 12:07 | 39.41649 | -110.45838 | 29816 ft | 503 kts | 105° |
| 2026-04-24 12:07 | 39.40746 | -110.41453 | 30172 ft | 503 kts | 105° |
| 2026-04-24 12:07 | 39.39844 | -110.37082 | 30455 ft | 503 kts | 105° |
| 2026-04-24 12:07 | 39.38950 | -110.32770 | 30686 ft | 504 kts | 105° |
| 2026-04-24 12:08 | 39.38039 | -110.28395 | 30949 ft | 504 kts | 105° |
| 2026-04-24 12:08 | 39.37125 | -110.24018 | 31218 ft | 505 kts | 105° |
| 2026-04-24 12:08 | 39.36204 | -110.19621 | 31445 ft | 506 kts | 105° |
| 2026-04-24 12:08 | 39.35283 | -110.15217 | 31677 ft | 507 kts | 105° |
| 2026-04-24 12:09 | 39.34361 | -110.10803 | 31898 ft | 509 kts | 106° |
| 2026-04-24 12:09 | 39.33434 | -110.06382 | 32088 ft | 510 kts | 106° |
| 2026-04-24 12:09 | 39.32503 | -110.01948 | 32335 ft | 511 kts | 106° |
| 2026-04-24 12:09 | 39.31571 | -109.97512 | 32608 ft | 512 kts | 106° |
| 2026-04-24 12:10 | 39.30649 | -109.93130 | 32866 ft | 512 kts | 106° |
| 2026-04-24 12:10 | 39.29709 | -109.88664 | 33126 ft | 513 kts | 106° |
| 2026-04-24 12:10 | 39.28768 | -109.84206 | 33378 ft | 514 kts | 106° |
| 2026-04-24 12:11 | 39.26883 | -109.75348 | 33876 ft | 515 kts | 107° |
| 2026-04-24 12:11 | 39.25930 | -109.70885 | 34115 ft | 515 kts | 107° |
| 2026-04-24 12:11 | 39.24976 | -109.66419 | 34349 ft | 515 kts | 107° |
| 2026-04-24 12:11 | 39.24022 | -109.61957 | 34575 ft | 515 kts | 107° |
| 2026-04-24 12:12 | 39.23068 | -109.57508 | 34809 ft | 515 kts | 107° |
| 2026-04-24 12:12 | 39.21795 | -109.51594 | 34915 ft | 519 kts | 107° |
| 2026-04-24 12:12 | 39.21152 | -109.48615 | 34928 ft | 522 kts | 107° |
| 2026-04-24 12:13 | 39.19194 | -109.39550 | 34920 ft | 524 kts | 107° |
| 2026-04-24 12:13 | 39.17229 | -109.30486 | 34924 ft | 524 kts | 107° |
| 2026-04-24 12:14 | 39.15268 | -109.21486 | 34927 ft | 524 kts | 107° |
| 2026-04-24 12:14 | 39.13292 | -109.12442 | 34928 ft | 524 kts | 107° |
| 2026-04-24 12:15 | 39.11303 | -109.03396 | 34934 ft | 523 kts | 107° |
| 2026-04-24 12:15 | 39.09323 | -108.94424 | 34927 ft | 523 kts | 107° |
| 2026-04-24 12:16 | 39.07331 | -108.85412 | 34922 ft | 523 kts | 107° |
| 2026-04-24 12:16 | 39.04525 | -108.76853 | 34935 ft | 516 kts | 125° |
| 2026-04-24 12:17 | 39.00498 | -108.69349 | 34995 ft | 512 kts | 130° |
| 2026-04-24 12:17 | 38.96372 | -108.61873 | 34992 ft | 512 kts | 129° |
| 2026-04-24 12:18 | 38.92245 | -108.54387 | 34943 ft | 513 kts | 130° |
| 2026-04-24 12:18 | 38.88132 | -108.46942 | 34933 ft | 514 kts | 130° |
| 2026-04-24 12:19 | 38.83984 | -108.39464 | 34966 ft | 514 kts | 130° |
| 2026-04-24 12:19 | 38.79818 | -108.31982 | 34998 ft | 514 kts | 130° |
| 2026-04-24 12:20 | 38.75657 | -108.24516 | 34994 ft | 514 kts | 130° |
| 2026-04-24 12:20 | 38.71514 | -108.17086 | 35018 ft | 515 kts | 130° |
| 2026-04-24 12:21 | 38.67331 | -108.09616 | 35012 ft | 516 kts | 131° |
| 2026-04-24 12:21 | 38.63147 | -108.02177 | 35001 ft | 516 kts | 131° |
| 2026-04-24 12:22 | 38.58947 | -107.94708 | 35020 ft | 517 kts | 130° |
| 2026-04-24 12:22 | 38.54771 | -107.87287 | 35037 ft | 517 kts | 131° |
| 2026-04-24 12:23 | 38.50554 | -107.79829 | 34932 ft | 517 kts | 131° |
| 2026-04-24 12:23 | 38.46332 | -107.72373 | 34974 ft | 517 kts | 131° |
| 2026-04-24 12:24 | 38.42108 | -107.64926 | 34946 ft | 517 kts | 131° |
| 2026-04-24 12:24 | 38.37918 | -107.57564 | 34990 ft | 516 kts | 131° |
| 2026-04-24 12:25 | 38.33698 | -107.50165 | 35002 ft | 516 kts | 131° |
| 2026-04-24 12:25 | 38.29462 | -107.42758 | 35028 ft | 516 kts | 131° |
| 2026-04-24 12:26 | 38.25254 | -107.35424 | 35013 ft | 515 kts | 131° |
| 2026-04-24 12:26 | 38.21016 | -107.28044 | 35047 ft | 514 kts | 131° |
| 2026-04-24 12:27 | 38.16814 | -107.20735 | 35061 ft | 514 kts | 131° |
| 2026-04-24 12:27 | 38.12586 | -107.13401 | 35072 ft | 513 kts | 131° |
| 2026-04-24 12:28 | 38.08379 | -107.06119 | 35038 ft | 513 kts | 131° |
| 2026-04-24 12:28 | 38.04138 | -106.98796 | 35047 ft | 513 kts | 132° |
| 2026-04-24 12:29 | 37.99894 | -106.91483 | 35049 ft | 514 kts | 132° |
| 2026-04-24 12:29 | 37.95673 | -106.84228 | 35039 ft | 514 kts | 132° |
| 2026-04-24 12:30 | 37.91412 | -106.76936 | 35045 ft | 515 kts | 132° |
| 2026-04-24 12:30 | 37.87155 | -106.69644 | 35015 ft | 515 kts | 132° |
| 2026-04-24 12:31 | 37.82889 | -106.62357 | 35041 ft | 515 kts | 132° |
| 2026-04-24 12:31 | 37.78601 | -106.55069 | 35057 ft | 516 kts | 132° |
| 2026-04-24 12:32 | 37.74341 | -106.47829 | 35083 ft | 516 kts | 132° |
| 2026-04-24 12:32 | 37.70054 | -106.40540 | 35074 ft | 516 kts | 132° |
| 2026-04-24 12:33 | 37.65764 | -106.33270 | 35083 ft | 516 kts | 133° |
| 2026-04-24 12:33 | 37.61469 | -106.26029 | 35085 ft | 515 kts | 133° |
| 2026-04-24 12:34 | 37.57202 | -106.18840 | 35070 ft | 514 kts | 133° |
| 2026-04-24 12:34 | 37.52893 | -106.11609 | 35002 ft | 514 kts | 133° |
| 2026-04-24 12:35 | 37.48591 | -106.04411 | 34995 ft | 514 kts | 133° |
| 2026-04-24 12:35 | 37.44291 | -105.97210 | 35000 ft | 514 kts | 133° |
| 2026-04-24 12:36 | 37.40010 | -105.90047 | 35064 ft | 515 kts | 133° |
| 2026-04-24 12:36 | 37.35697 | -105.82850 | 35066 ft | 515 kts | 132° |
| 2026-04-24 12:37 | 37.31836 | -105.75188 | 35050 ft | 520 kts | 126° |
| 2026-04-24 12:37 | 37.28079 | -105.67421 | 35032 ft | 520 kts | 126° |
| 2026-04-24 12:38 | 37.24335 | -105.59729 | 34993 ft | 519 kts | 126° |
| 2026-04-24 12:38 | 37.20573 | -105.51992 | 34999 ft | 519 kts | 126° |
| 2026-04-24 12:39 | 37.13035 | -105.36541 | 34960 ft | 518 kts | 126° |
| 2026-04-24 12:40 | 37.09291 | -105.28889 | 34950 ft | 518 kts | 127° |
| 2026-04-24 12:40 | 37.05517 | -105.21211 | 34951 ft | 518 kts | 127° |
| 2026-04-24 12:41 | 37.01726 | -105.13534 | 34934 ft | 518 kts | 127° |
| 2026-04-24 12:41 | 36.97934 | -105.05856 | 34870 ft | 518 kts | 127° |
| 2026-04-24 12:42 | 36.94146 | -104.98190 | 34876 ft | 518 kts | 127° |
| 2026-04-24 12:42 | 36.90348 | -104.90522 | 34881 ft | 518 kts | 127° |
| 2026-04-24 12:43 | 36.86545 | -104.82862 | 34912 ft | 518 kts | 127° |
| 2026-04-24 12:43 | 36.82766 | -104.75253 | 34938 ft | 518 kts | 127° |
| 2026-04-24 12:44 | 36.78949 | -104.67617 | 34933 ft | 517 kts | 127° |
| 2026-04-24 12:44 | 36.75139 | -104.59991 | 34976 ft | 517 kts | 127° |
| 2026-04-24 12:45 | 36.71339 | -104.52414 | 34977 ft | 517 kts | 128° |
| 2026-04-24 12:45 | 36.67515 | -104.44828 | 34984 ft | 517 kts | 128° |
| 2026-04-24 12:46 | 36.63683 | -104.37213 | 34959 ft | 517 kts | 128° |
| 2026-04-24 12:46 | 36.59880 | -104.29670 | 34902 ft | 517 kts | 128° |
| 2026-04-24 12:47 | 36.56042 | -104.22086 | 34841 ft | 517 kts | 128° |
| 2026-04-24 12:47 | 36.52205 | -104.14518 | 34841 ft | 517 kts | 128° |
| 2026-04-24 12:48 | 36.49000 | -104.08223 | 34840 ft | 518 kts | 128° |
| 2026-04-24 12:48 | 36.44517 | -103.99415 | 34829 ft | 518 kts | 128° |
| 2026-04-24 12:49 | 36.41307 | -103.93116 | 34788 ft | 518 kts | 128° |
| 2026-04-24 12:49 | 36.37446 | -103.85552 | 34829 ft | 518 kts | 128° |
| 2026-04-24 12:50 | 36.33579 | -103.78004 | 34841 ft | 517 kts | 128° |
| 2026-04-24 12:50 | 36.29729 | -103.70504 | 34852 ft | 516 kts | 128° |
| 2026-04-24 12:51 | 36.25883 | -103.63048 | 34847 ft | 516 kts | 128° |
| 2026-04-24 12:51 | 36.22008 | -103.55557 | 34845 ft | 515 kts | 128° |
| 2026-04-24 12:52 | 36.18140 | -103.48064 | 34826 ft | 514 kts | 128° |
| 2026-04-24 12:52 | 36.14308 | -103.40652 | 34849 ft | 513 kts | 128° |
| 2026-04-24 12:53 | 36.10443 | -103.33206 | 34866 ft | 513 kts | 128° |
| 2026-04-24 12:53 | 36.06579 | -103.25785 | 34868 ft | 512 kts | 128° |
| 2026-04-24 12:54 | 36.02738 | -103.18416 | 34872 ft | 512 kts | 128° |
| 2026-04-24 12:54 | 35.98860 | -103.11000 | 34839 ft | 511 kts | 128° |
| 2026-04-24 12:55 | 35.95009 | -103.03661 | 34856 ft | 511 kts | 128° |
| 2026-04-24 12:55 | 35.91139 | -102.96280 | 34859 ft | 511 kts | 128° |
| 2026-04-24 12:56 | 35.87289 | -102.88957 | 34877 ft | 511 kts | 128° |
| 2026-04-24 12:56 | 35.83415 | -102.81602 | 34859 ft | 510 kts | 128° |
| 2026-04-24 12:57 | 35.79563 | -102.74306 | 34827 ft | 510 kts | 128° |
| 2026-04-24 12:57 | 35.75684 | -102.66982 | 34853 ft | 509 kts | 128° |
| 2026-04-24 12:58 | 35.71808 | -102.59675 | 34862 ft | 509 kts | 128° |
| 2026-04-24 12:58 | 35.67953 | -102.52432 | 34862 ft | 508 kts | 128° |
| 2026-04-24 12:59 | 35.64070 | -102.45151 | 34855 ft | 508 kts | 128° |
| 2026-04-24 12:59 | 35.60184 | -102.37863 | 34807 ft | 508 kts | 128° |
| 2026-04-24 13:00 | 35.56332 | -102.30649 | 34825 ft | 507 kts | 128° |
| 2026-04-24 13:00 | 35.52441 | -102.23400 | 34839 ft | 507 kts | 128° |
| 2026-04-24 13:01 | 35.48554 | -102.16181 | 34833 ft | 507 kts | 129° |
| 2026-04-24 13:01 | 35.44685 | -102.08993 | 34831 ft | 507 kts | 128° |
| 2026-04-24 13:02 | 35.40797 | -102.01771 | 34847 ft | 507 kts | 129° |
| 2026-04-24 13:02 | 35.36897 | -101.94561 | 34888 ft | 506 kts | 129° |
| 2026-04-24 13:03 | 35.33017 | -101.87403 | 34925 ft | 506 kts | 129° |
| 2026-04-24 13:03 | 35.29120 | -101.80219 | 34958 ft | 506 kts | 129° |
| 2026-04-24 13:04 | 35.25216 | -101.73046 | 34965 ft | 506 kts | 129° |
| 2026-04-24 13:04 | 35.21216 | -101.66032 | 34956 ft | 503 kts | 132° |
| 2026-04-24 13:05 | 35.16895 | -101.59337 | 34926 ft | 501 kts | 135° |
| 2026-04-24 13:05 | 35.14682 | -101.56047 | 34787 ft | 501 kts | 135° |
| 2026-04-24 13:05 | 35.12474 | -101.52763 | 34792 ft | 501 kts | 135° |
| 2026-04-24 13:06 | 35.08103 | -101.46124 | 34793 ft | 502 kts | 134° |
| 2026-04-24 13:06 | 35.03803 | -101.39448 | 34798 ft | 502 kts | 134° |
| 2026-04-24 13:07 | 34.99481 | -101.32741 | 34797 ft | 502 kts | 134° |
| 2026-04-24 13:07 | 34.95148 | -101.26074 | 34759 ft | 501 kts | 134° |
| 2026-04-24 13:08 | 34.90833 | -101.19468 | 34791 ft | 500 kts | 134° |
| 2026-04-24 13:08 | 34.86488 | -101.12828 | 34795 ft | 500 kts | 134° |
| 2026-04-24 13:09 | 34.80003 | -101.02922 | 34791 ft | 500 kts | 134° |
| 2026-04-24 13:09 | 34.75658 | -100.96292 | 34787 ft | 500 kts | 134° |
| 2026-04-24 13:10 | 34.71334 | -100.89706 | 34762 ft | 499 kts | 134° |
| 2026-04-24 13:10 | 34.66989 | -100.83109 | 34762 ft | 500 kts | 134° |
| 2026-04-24 13:11 | 34.62655 | -100.76541 | 34761 ft | 500 kts | 134° |
| 2026-04-24 13:11 | 34.58293 | -100.69939 | 34762 ft | 500 kts | 134° |
| 2026-04-24 13:12 | 34.53957 | -100.63403 | 34760 ft | 500 kts | 134° |
| 2026-04-24 13:12 | 34.49595 | -100.56825 | 34712 ft | 500 kts | 134° |
| 2026-04-24 13:13 | 34.45233 | -100.50255 | 34745 ft | 500 kts | 134° |
| 2026-04-24 13:13 | 34.40863 | -100.43692 | 34759 ft | 499 kts | 134° |
| 2026-04-24 13:14 | 34.36519 | -100.37185 | 34758 ft | 499 kts | 134° |
| 2026-04-24 13:14 | 34.32136 | -100.30638 | 34838 ft | 499 kts | 134° |
| 2026-04-24 13:15 | 34.27764 | -100.24112 | 34798 ft | 499 kts | 134° |
| 2026-04-24 13:15 | 34.23391 | -100.17583 | 34773 ft | 499 kts | 134° |
| 2026-04-24 13:16 | 34.19034 | -100.11090 | 34768 ft | 499 kts | 134° |
| 2026-04-24 13:16 | 34.14657 | -100.04589 | 34751 ft | 498 kts | 134° |
| 2026-04-24 13:17 | 34.10280 | -99.98105 | 34739 ft | 498 kts | 134° |
| 2026-04-24 13:17 | 34.05927 | -99.91658 | 34716 ft | 498 kts | 134° |
| 2026-04-24 13:18 | 34.01540 | -99.85177 | 34711 ft | 499 kts | 134° |
| 2026-04-24 13:18 | 33.97146 | -99.78713 | 34712 ft | 498 kts | 134° |
| 2026-04-24 13:19 | 33.92755 | -99.72248 | 34731 ft | 498 kts | 134° |
| 2026-04-24 13:19 | 33.88389 | -99.65823 | 34722 ft | 498 kts | 134° |
| 2026-04-24 13:20 | 33.83993 | -99.59363 | 34698 ft | 497 kts | 134° |
| 2026-04-24 13:20 | 33.79621 | -99.52957 | 34686 ft | 498 kts | 134° |
| 2026-04-24 13:21 | 33.75205 | -99.46509 | 34684 ft | 499 kts | 134° |
| 2026-04-24 13:21 | 33.70772 | -99.40054 | 34698 ft | 499 kts | 134° |
| 2026-04-24 13:22 | 33.66345 | -99.33615 | 34703 ft | 499 kts | 134° |
| 2026-04-24 13:22 | 33.61941 | -99.27220 | 34706 ft | 499 kts | 134° |
| 2026-04-24 13:23 | 33.57509 | -99.20786 | 34673 ft | 500 kts | 134° |
| 2026-04-24 13:23 | 33.53088 | -99.14379 | 34676 ft | 501 kts | 134° |
| 2026-04-24 13:24 | 33.48628 | -99.07926 | 34693 ft | 502 kts | 133° |
| 2026-04-24 13:24 | 33.44156 | -99.01480 | 34703 ft | 502 kts | 134° |
| 2026-04-24 13:25 | 33.39686 | -98.95037 | 34711 ft | 502 kts | 133° |
| 2026-04-24 13:25 | 33.35241 | -98.88631 | 34678 ft | 502 kts | 134° |
| 2026-04-24 13:26 | 33.30760 | -98.82177 | 34687 ft | 505 kts | 134° |
| 2026-04-24 13:26 | 33.26276 | -98.75761 | 34708 ft | 507 kts | 134° |
| 2026-04-24 13:27 | 33.21738 | -98.69287 | 34743 ft | 508 kts | 134° |
| 2026-04-24 13:27 | 33.17220 | -98.62847 | 34768 ft | 508 kts | 134° |
| 2026-04-24 13:28 | 33.12683 | -98.56366 | 34774 ft | 507 kts | 134° |
| 2026-04-24 13:28 | 33.08146 | -98.49904 | 34776 ft | 507 kts | 134° |
| 2026-04-24 13:29 | 33.03604 | -98.43463 | 34716 ft | 507 kts | 134° |
| 2026-04-24 13:29 | 32.99091 | -98.37063 | 34725 ft | 507 kts | 134° |
| 2026-04-24 13:30 | 32.94547 | -98.30635 | 34749 ft | 507 kts | 134° |
| 2026-04-24 13:30 | 32.90007 | -98.24212 | 34770 ft | 507 kts | 134° |
| 2026-04-24 13:31 | 32.85458 | -98.17793 | 34759 ft | 508 kts | 134° |
| 2026-04-24 13:31 | 32.80884 | -98.11359 | 34763 ft | 509 kts | 134° |
| 2026-04-24 13:32 | 32.76294 | -98.04917 | 34765 ft | 510 kts | 134° |
| 2026-04-24 13:32 | 32.71485 | -97.98824 | 34770 ft | 504 kts | 146° |
| 2026-04-24 13:33 | 32.65895 | -97.93855 | 34764 ft | 501 kts | 149° |
| 2026-04-24 13:33 | 32.60292 | -97.88937 | 34737 ft | 501 kts | 149° |
| 2026-04-24 13:34 | 32.54718 | -97.84037 | 34767 ft | 502 kts | 149° |
| 2026-04-24 13:34 | 32.49086 | -97.79107 | 34764 ft | 502 kts | 149° |
| 2026-04-24 13:35 | 32.43451 | -97.74192 | 34768 ft | 503 kts | 149° |
| 2026-04-24 13:35 | 32.37840 | -97.69304 | 34734 ft | 503 kts | 149° |
| 2026-04-24 13:36 | 32.32183 | -97.64374 | 34717 ft | 505 kts | 149° |
| 2026-04-24 13:36 | 32.26545 | -97.59465 | 34731 ft | 507 kts | 149° |
| 2026-04-24 13:37 | 32.20843 | -97.54522 | 34754 ft | 507 kts | 149° |
| 2026-04-24 13:37 | 32.16107 | -97.50418 | 34768 ft | 507 kts | 149° |
| 2026-04-24 13:38 | 32.10420 | -97.45487 | 34753 ft | 507 kts | 150° |
| 2026-04-24 13:38 | 32.04715 | -97.40561 | 34765 ft | 509 kts | 150° |
| 2026-04-24 13:39 | 31.98990 | -97.35627 | 34773 ft | 510 kts | 150° |
| 2026-04-24 13:39 | 31.93258 | -97.30685 | 34781 ft | 511 kts | 150° |
| 2026-04-24 13:40 | 31.87551 | -97.25778 | 34787 ft | 511 kts | 150° |
| 2026-04-24 13:40 | 31.81781 | -97.20834 | 34766 ft | 512 kts | 150° |
| 2026-04-24 13:41 | 31.76008 | -97.15889 | 34775 ft | 514 kts | 150° |
| 2026-04-24 13:41 | 31.70257 | -97.10966 | 34779 ft | 515 kts | 150° |
| 2026-04-24 13:42 | 31.64463 | -97.06009 | 34776 ft | 515 kts | 150° |
| 2026-04-24 13:42 | 31.58672 | -97.01054 | 34796 ft | 516 kts | 151° |
| 2026-04-24 13:43 | 31.52865 | -96.96093 | 34796 ft | 517 kts | 152° |
| 2026-04-24 13:43 | 31.47028 | -96.91137 | 34786 ft | 518 kts | 151° |
| 2026-04-24 13:44 | 31.41172 | -96.86179 | 34772 ft | 519 kts | 151° |
| 2026-04-24 13:44 | 31.35350 | -96.81243 | 34770 ft | 519 kts | 151° |
| 2026-04-24 13:45 | 31.29498 | -96.76280 | 34732 ft | 519 kts | 151° |
| 2026-04-24 13:45 | 31.23651 | -96.71337 | 34501 ft | 522 kts | 152° |
| 2026-04-24 13:46 | 31.20653 | -96.68943 | 33451 ft | 524 kts | 157° |
| 2026-04-24 13:46 | 31.17412 | -96.67026 | 32505 ft | 516 kts | 166° |
| 2026-04-24 13:46 | 31.14060 | -96.65522 | 31591 ft | 514 kts | 167° |
| 2026-04-24 13:46 | 31.10750 | -96.64067 | 30662 ft | 516 kts | 167° |
| 2026-04-24 13:47 | 31.07387 | -96.62589 | 29920 ft | 514 kts | 167° |
| 2026-04-24 13:47 | 31.04035 | -96.61113 | 28869 ft | 514 kts | 167° |
| 2026-04-24 13:47 | 31.00682 | -96.59636 | 27792 ft | 515 kts | 166° |
| 2026-04-24 13:47 | 30.97329 | -96.58159 | 27023 ft | 508 kts | 166° |
| 2026-04-24 13:48 | 30.94161 | -96.56751 | 26822 ft | 478 kts | 166° |
| 2026-04-24 13:48 | 30.91125 | -96.55398 | 26435 ft | 456 kts | 166° |
| 2026-04-24 13:48 | 30.88194 | -96.54104 | 25717 ft | 444 kts | 166° |
| 2026-04-24 13:48 | 30.85320 | -96.52857 | 25423 ft | 438 kts | 166° |
| 2026-04-24 13:49 | 30.82467 | -96.51628 | 25071 ft | 436 kts | 166° |
| 2026-04-24 13:49 | 30.79665 | -96.50419 | 24530 ft | 433 kts | 166° |
| 2026-04-24 13:49 | 30.76843 | -96.49200 | 24006 ft | 430 kts | 165° |
| 2026-04-24 13:49 | 30.74044 | -96.47990 | 23489 ft | 427 kts | 165° |
| 2026-04-24 13:50 | 30.71266 | -96.46781 | 22999 ft | 422 kts | 164° |
| 2026-04-24 13:50 | 30.68555 | -96.45596 | 22462 ft | 418 kts | 164° |
| 2026-04-24 13:50 | 30.65845 | -96.44409 | 21905 ft | 415 kts | 164° |
| 2026-04-24 13:50 | 30.63153 | -96.43235 | 21458 ft | 410 kts | 164° |
| 2026-04-24 13:51 | 30.60489 | -96.42065 | 20904 ft | 408 kts | 163° |
| 2026-04-24 13:51 | 30.57877 | -96.40797 | 20438 ft | 405 kts | 161° |
| 2026-04-24 13:51 | 30.55311 | -96.39425 | 19969 ft | 403 kts | 159° |
| 2026-04-24 13:51 | 30.52843 | -96.38030 | 19370 ft | 395 kts | 158° |
| 2026-04-24 13:52 | 30.50398 | -96.36623 | 18820 ft | 390 kts | 158° |
| 2026-04-24 13:52 | 30.47962 | -96.35229 | 18324 ft | 387 kts | 158° |
| 2026-04-24 13:52 | 30.45553 | -96.33875 | 17770 ft | 383 kts | 158° |
| 2026-04-24 13:52 | 30.43153 | -96.32552 | 17279 ft | 380 kts | 159° |
| 2026-04-24 13:53 | 30.40764 | -96.31254 | 16790 ft | 378 kts | 159° |
| 2026-04-24 13:53 | 30.38412 | -96.30003 | 16380 ft | 374 kts | 159° |
| 2026-04-24 13:53 | 30.36044 | -96.28761 | 15928 ft | 372 kts | 159° |
| 2026-04-24 13:53 | 30.33687 | -96.27532 | 15445 ft | 370 kts | 159° |
| 2026-04-24 13:54 | 30.31343 | -96.26308 | 14975 ft | 368 kts | 159° |
| 2026-04-24 13:54 | 30.29014 | -96.25091 | 14519 ft | 366 kts | 158° |
| 2026-04-24 13:54 | 30.26713 | -96.23882 | 13997 ft | 360 kts | 158° |
| 2026-04-24 13:54 | 30.24449 | -96.22685 | 13529 ft | 355 kts | 158° |
| 2026-04-24 13:55 | 30.22229 | -96.21514 | 13066 ft | 353 kts | 158° |
| 2026-04-24 13:55 | 30.19998 | -96.20332 | 12623 ft | 352 kts | 158° |
| 2026-04-24 13:55 | 30.17777 | -96.19149 | 12166 ft | 350 kts | 158° |
| 2026-04-24 13:55 | 30.15566 | -96.17969 | 11742 ft | 349 kts | 158° |
| 2026-04-24 13:56 | 30.13373 | -96.16794 | 11616 ft | 347 kts | 158° |
| 2026-04-24 13:56 | 30.11182 | -96.15621 | 11541 ft | 347 kts | 158° |
| 2026-04-24 13:56 | 30.08991 | -96.14451 | 11463 ft | 346 kts | 158° |
| 2026-04-24 13:56 | 30.06803 | -96.13279 | 11411 ft | 346 kts | 158° |
| 2026-04-24 13:57 | 30.04622 | -96.12098 | 11355 ft | 346 kts | 156° |
| 2026-04-24 13:57 | 30.02457 | -96.10878 | 11164 ft | 346 kts | 156° |
| 2026-04-24 13:57 | 30.00314 | -96.09638 | 10941 ft | 344 kts | 155° |
| 2026-04-24 13:57 | 29.98205 | -96.08408 | 10902 ft | 343 kts | 156° |
| 2026-04-24 13:58 | 29.96074 | -96.07166 | 10934 ft | 343 kts | 156° |
| 2026-04-24 13:58 | 29.93938 | -96.05930 | 10955 ft | 343 kts | 156° |
| 2026-04-24 13:58 | 29.91802 | -96.04702 | 10970 ft | 343 kts | 156° |
| 2026-04-24 13:58 | 29.89658 | -96.03474 | 10993 ft | 343 kts | 156° |
| 2026-04-24 13:59 | 29.87516 | -96.02247 | 10997 ft | 343 kts | 156° |
| 2026-04-24 13:59 | 29.85378 | -96.01023 | 11010 ft | 343 kts | 156° |
| 2026-04-24 13:59 | 29.83234 | -95.99802 | 11025 ft | 343 kts | 156° |
| 2026-04-24 13:59 | 29.81126 | -95.98558 | 10771 ft | 345 kts | 154° |
| 2026-04-24 14:00 | 29.79027 | -95.97211 | 10418 ft | 341 kts | 152° |
| 2026-04-24 14:00 | 29.77019 | -95.95857 | 10295 ft | 329 kts | 152° |
| 2026-04-24 14:00 | 29.75079 | -95.94535 | 10187 ft | 318 kts | 152° |
| 2026-04-24 14:00 | 29.73200 | -95.93261 | 10037 ft | 310 kts | 152° |
| 2026-04-24 14:01 | 29.71369 | -95.92040 | 9818 ft | 306 kts | 153° |
| 2026-04-24 14:01 | 29.69519 | -95.90833 | 9536 ft | 303 kts | 153° |
| 2026-04-24 14:01 | 29.67700 | -95.89621 | 9315 ft | 299 kts | 147° |
| 2026-04-24 14:01 | 29.66210 | -95.87986 | 9072 ft | 296 kts | 127° |
| 2026-04-24 14:02 | 29.65290 | -95.85887 | 8802 ft | 295 kts | 107° |
| 2026-04-24 14:02 | 29.65000 | -95.83564 | 8535 ft | 294 kts | 93° |
| 2026-04-24 14:02 | 29.64901 | -95.81212 | 8285 ft | 293 kts | 94° |
| 2026-04-24 14:02 | 29.64796 | -95.78904 | 8049 ft | 292 kts | 94° |
| 2026-04-24 14:03 | 29.64684 | -95.76567 | 7808 ft | 291 kts | 94° |
| 2026-04-24 14:03 | 29.64568 | -95.74249 | 7561 ft | 289 kts | 94° |
| 2026-04-24 14:03 | 29.64462 | -95.72126 | 7332 ft | 288 kts | 95° |
| 2026-04-24 14:03 | 29.64382 | -95.70503 | 7153 ft | 288 kts | 95° |
| 2026-04-24 14:04 | 29.64273 | -95.68244 | 6918 ft | 285 kts | 95° |
| 2026-04-24 14:04 | 29.64162 | -95.65972 | 6672 ft | 284 kts | 96° |
| 2026-04-24 14:04 | 29.64048 | -95.63708 | 6428 ft | 283 kts | 96° |
| 2026-04-24 14:04 | 29.63934 | -95.61453 | 6129 ft | 282 kts | 96° |
| 2026-04-24 14:05 | 29.63823 | -95.59210 | 5973 ft | 281 kts | 96° |
| 2026-04-24 14:05 | 29.63712 | -95.56972 | 5976 ft | 280 kts | 96° |
| 2026-04-24 14:05 | 29.63599 | -95.54730 | 5983 ft | 280 kts | 96° |
| 2026-04-24 14:05 | 29.63489 | -95.52516 | 5988 ft | 281 kts | 96° |
| 2026-04-24 14:06 | 29.63374 | -95.50274 | 5995 ft | 281 kts | 96° |
| 2026-04-24 14:06 | 29.63259 | -95.48031 | 6009 ft | 280 kts | 96° |
| 2026-04-24 14:06 | 29.63146 | -95.45799 | 6009 ft | 278 kts | 96° |
| 2026-04-24 14:06 | 29.63041 | -95.43646 | 6008 ft | 261 kts | 96° |
| 2026-04-24 14:07 | 29.62944 | -95.41616 | 6014 ft | 250 kts | 96° |
| 2026-04-24 14:07 | 29.62845 | -95.39634 | 6015 ft | 248 kts | 96° |
| 2026-04-24 14:07 | 29.62731 | -95.37658 | 6016 ft | 247 kts | 98° |
| 2026-04-24 14:07 | 29.62563 | -95.35718 | 6021 ft | 247 kts | 99° |
| 2026-04-24 14:08 | 29.62368 | -95.33752 | 6031 ft | 248 kts | 99° |
| 2026-04-24 14:08 | 29.62162 | -95.31772 | 6025 ft | 250 kts | 99° |
| 2026-04-24 14:08 | 29.61960 | -95.29783 | 6015 ft | 249 kts | 99° |
| 2026-04-24 14:08 | 29.61762 | -95.27809 | 5994 ft | 248 kts | 100° |
| 2026-04-24 14:09 | 29.61570 | -95.25874 | 6007 ft | 245 kts | 99° |
| 2026-04-24 14:09 | 29.61376 | -95.23933 | 6010 ft | 243 kts | 99° |
| 2026-04-24 14:09 | 29.61190 | -95.21992 | 5974 ft | 244 kts | 97° |
| 2026-04-24 14:09 | 29.61070 | -95.20030 | 5807 ft | 247 kts | 98° |
| 2026-04-24 14:10 | 29.60980 | -95.18725 | 5723 ft | 247 kts | 97° |
| 2026-04-24 14:10 | 29.60799 | -95.16133 | 5495 ft | 242 kts | 99° |
| 2026-04-24 14:10 | 29.60408 | -95.14289 | 5168 ft | 236 kts | 113° |
| 2026-04-24 14:10 | 29.59838 | -95.12525 | 4817 ft | 234 kts | 115° |
| 2026-04-24 14:11 | 29.59509 | -95.10684 | 4489 ft | 239 kts | 89° |
| 2026-04-24 14:11 | 29.60044 | -95.08885 | 4194 ft | 242 kts | 55° |
| 2026-04-24 14:11 | 29.62442 | -95.06181 | 3571 ft | 243 kts | 41° |
| 2026-04-24 14:12 | 29.63725 | -95.04901 | 3264 ft | 243 kts | 41° |
| 2026-04-24 14:12 | 29.65008 | -95.03633 | 3039 ft | 240 kts | 41° |
| 2026-04-24 14:12 | 29.66249 | -95.02410 | 2981 ft | 228 kts | 41° |
| 2026-04-24 14:12 | 29.67420 | -95.01255 | 2962 ft | 215 kts | 41° |
| 2026-04-24 14:13 | 29.68552 | -95.00188 | 2673 ft | 214 kts | 31° |
| 2026-04-24 14:13 | 29.69948 | -94.99777 | 2478 ft | 205 kts | 351° |
| 2026-04-24 14:13 | 29.71209 | -95.00386 | 2339 ft | 195 kts | 313° |
| 2026-04-24 14:13 | 29.72155 | -95.01498 | 2215 ft | 195 kts | 307° |
| 2026-04-24 14:14 | 29.73064 | -95.02655 | 2100 ft | 193 kts | 306° |
| 2026-04-24 14:14 | 29.73958 | -95.03795 | 2011 ft | 191 kts | 306° |
| 2026-04-24 14:14 | 29.75743 | -95.06044 | 2005 ft | 190 kts | 306° |
| 2026-04-24 14:15 | 29.76642 | -95.07145 | 2002 ft | 191 kts | 306° |
| 2026-04-24 14:15 | 29.77536 | -95.08278 | 2002 ft | 190 kts | 298° |
| 2026-04-24 14:15 | 29.77862 | -95.09670 | 2006 ft | 177 kts | 261° |
| 2026-04-24 14:15 | 29.77561 | -95.11017 | 1896 ft | 174 kts | 245° |
| 2026-04-24 14:16 | 29.77065 | -95.12297 | 1766 ft | 175 kts | 242° |
| 2026-04-24 14:16 | 29.76541 | -95.13566 | 1680 ft | 174 kts | 241° |
| 2026-04-24 14:16 | 29.76087 | -95.14694 | 1611 ft | 172 kts | 241° |
| 2026-04-24 14:17 | 29.75761 | -95.15326 | 1740 ft | 166 kts | 228° |
| 2026-04-24 14:17 | 29.74065 | -95.17297 | 1648 ft | 176 kts | 223° |
| 2026-04-24 14:18 | 29.73191 | -95.18269 | 1618 ft | 171 kts | 223° |
| 2026-04-24 14:18 | 29.72356 | -95.19195 | 1599 ft | 161 kts | 223° |
| 2026-04-24 14:18 | 29.71591 | -95.20043 | 1594 ft | 148 kts | 223° |
| 2026-04-24 14:18 | 29.70865 | -95.20845 | 1453 ft | 139 kts | 221° |
| 2026-04-24 14:19 | 29.70404 | -95.21355 | 1348 ft | 133 kts | 222° |
| 2026-04-24 14:19 | 29.69530 | -95.22322 | 1144 ft | 129 kts | 221° |
| 2026-04-24 14:19 | 29.68883 | -95.23037 | 1002 ft | 128 kts | 224° |
| 2026-04-24 14:19 | 29.68244 | -95.23744 | 852 ft | 128 kts | 221° |
| 2026-04-24 14:20 | 29.67605 | -95.24450 | 714 ft | 130 kts | 221° |
| 2026-04-24 14:20 | 29.66940 | -95.25180 | 572 ft | 132 kts | 223° |
| 2026-04-24 14:20 | 29.66279 | -95.25911 | 378 ft | 134 kts | 223° |
| 2026-04-24 14:20 | 29.65609 | -95.26657 | 155 ft | 133 kts | 220° |
| 2026-04-24 14:21 | 29.64964 | -95.27365 | 52 ft | 112 kts | 224° |
| 2026-04-24 14:21 | 29.64612 | -95.27757 | 50 ft | 42 kts | 225° |
| 2026-04-24 14:21 | 29.64540 | -95.27892 | 52 ft | 14 kts | 297° |
| 2026-04-24 14:21 | 29.64604 | -95.27969 | 52 ft | 13 kts | 314° |
| 2026-04-24 14:22 | 29.64665 | -95.28012 | 52 ft | 9 kts | 13° |
| 2026-04-24 14:22 | 29.64714 | -95.27968 | 50 ft | 9 kts | 44° |
| 2026-04-24 14:22 | 29.64900 | -95.27764 | 52 ft | 23 kts | 44° |
| 2026-04-24 14:23 | 29.65011 | -95.27642 | 52 ft | 21 kts | 44° |
| 2026-04-24 14:23 | 29.65102 | -95.27543 | 49 ft | 12 kts | 43° |
| 2026-04-24 14:23 | 29.65128 | -95.27516 | 52 ft | 4 kts | 43° |
| 2026-04-24 14:23 | 29.65148 | -95.27458 | 52 ft | 7 kts | 87° |
| 2026-04-24 14:24 | 29.65169 | -95.27433 | 52 ft | 4 kts | 344° |
| 2026-04-24 14:24 | 29.65206 | -95.27452 | 52 ft | 2 kts | 335° |
| 2026-04-24 14:24 | 29.65207 | -95.27452 | 52 ft | 0 kts | 335° |